Terminal Aerodrome Forecast
Issued by NWS

Home | Current Version | Previous Version | Graphics & Text | Print | Product List | Glossary On
Versions: 1 2 3 4 5 6 7 8 9 10 11 12 13 14 15
659
FTUS41 KCLE 210523
TAFFDY
TAF
KFDY 210523Z 2106/2206 VRB03KT P6SM FEW250
      TEMPO 2107/2109 5SM BR
     FM210900 00000KT 5SM BR FEW050 SCT250
      TEMPO 2109/2113 2SM BR FEW009
     FM211500 18004KT P6SM SCT250
     FM211800 16006KT P6SM SCT045
     FM220000 12004KT P6SM FEW250=

USA.gov is the U.S. government's official web portal to all federal, state and local government web resources and services.